Time;durP1;ratioP1;P1;durP2;ratioP2;P2;SDS_P1;SDS_P2;PMS_P1;PMS_P2;Temp;Humidity;BMP_temperature;BMP_pressure;BME280_temperature;BME280_humidity;BME280_pressure;Samples;Min_cycle;Max_cycle;Signal;HPM_P1;HPM_P2
2022/10/08 00:01:40;;;;;;;;;;;;;;;12.94;100.00;96792.88;4890790;29;20005;-73
2022/10/08 00:04:06;;;;;;;;;;;;;;;12.94;100.00;96782.34;4896021;29;20326;-73
2022/10/08 00:06:32;;;;;;;;;;;;;;;12.93;100.00;96787.81;4891297;29;20017;-73
2022/10/08 00:09:00;;;;;;;;;;;;;;;12.91;100.00;96782.75;4891078;29;20015;-73
2022/10/08 00:11:31;;;;;;;;;;;;;;;12.89;100.00;96779.59;4891194;29;20421;-73
2022/10/08 00:13:57;;;;;;;;;;;;;;;12.88;100.00;96772.69;4889978;29;19967;-74
2022/10/08 00:16:24;;;;;;;;;;;;;;;12.86;100.00;96776.59;4893822;29;20405;-73
2022/10/08 00:18:51;;;;;;;;;;;;;;;12.84;100.00;96781.28;4896442;29;20327;-73
2022/10/08 00:21:19;;;;;;;;;;;;;;;12.83;100.00;96782.28;4893239;29;19983;-73
2022/10/08 00:23:46;;;;;;;;;;;;;;;12.81;100.00;96785.16;4891777;29;20356;-74
2022/10/08 00:26:12;;;;;;;;;;;;;;;12.79;100.00;96780.13;4891879;29;19964;-73
2022/10/08 00:28:40;;;;;;;;;;;;;;;12.79;100.00;96774.06;4891876;29;19963;-73
2022/10/08 00:31:08;;;;;;;;;;;;;;;12.77;100.00;96769.00;4891979;29;20401;-73
2022/10/08 00:33:35;;;;;;;;;;;;;;;12.76;100.00;96770.00;4887806;29;19965;-73
2022/10/08 00:36:02;;;;;;;;;;;;;;;12.74;100.00;96772.06;4888845;29;19953;-73
2022/10/08 00:38:27;;;;;;;;;;;;;;;12.74;100.00;96776.53;4890087;29;19973;-73
2022/10/08 00:40:53;;;;;;;;;;;;;;;12.71;100.00;96767.25;4879943;29;20038;-73
2022/10/08 00:43:35;;;;;;;;;;;;;;;12.72;100.00;96771.47;4886920;29;19974;-73
2022/10/08 00:46:01;;;;;;;;;;;;;;;12.71;100.00;96777.78;4879141;29;19964;-73
2022/10/08 00:48:27;;;;;;;;;;;;;;;12.71;100.00;96772.53;4888209;29;19968;-73
2022/10/08 00:50:53;;;;;;;;;;;;;;;12.70;100.00;96768.28;4890426;29;19962;-73
2022/10/08 00:53:20;;;;;;;;;;;;;;;12.70;100.00;96764.84;4890120;29;19959;-73
2022/10/08 00:55:46;;;;;;;;;;;;;;;12.71;100.00;96764.63;4891795;29;19967;-73
2022/10/08 00:58:15;;;;;;;;;;;;;;;12.71;100.00;96769.09;4891484;29;19957;-73
2022/10/08 01:00:40;;;;;;;;;;;;;;;12.71;100.00;96769.09;4886903;29;19952;-73
2022/10/08 01:03:06;;;;;;;;;;;;;;;12.71;100.00;96766.47;4890902;29;19962;-73
2022/10/08 01:05:50;;;;;;;;;;;;;;;12.71;100.00;96764.63;4895228;29;20433;-73
2022/10/08 01:08:32;;;;;;;;;;;;;;;12.71;100.00;96761.22;4893540;29;19953;-73
2022/10/08 01:11:01;;;;;;;;;;;;;;;12.72;100.00;96758.31;4883913;29;19952;-74
2022/10/08 01:13:59;;;;;;;;;;;;;;;12.73;100.00;96764.41;4886729;29;19964;-73
2022/10/08 01:16:53;;;;;;;;;;;;;;;12.73;100.00;96759.94;4856651;29;20332;-73
2022/10/08 01:19:37;;;;;;;;;;;;;;;12.75;100.00;96765.00;4851798;29;20036;-74
2022/10/08 01:22:09;;;;;;;;;;;;;;;12.76;100.00;96766.59;4892347;29;19953;-74
2022/10/08 01:27:37;;;;;;;;;;;;;;;12.76;100.00;96758.69;4890878;29;20442;-73
2022/10/08 01:30:04;;;;;;;;;;;;;;;12.76;100.00;96758.69;4894225;29;19968;-73
2022/10/08 01:32:37;;;;;;;;;;;;;;;12.75;100.00;96757.91;4886609;29;19973;-73
2022/10/08 01:35:08;;;;;;;;;;;;;;;12.76;100.00;96756.84;4892387;29;19948;-73
2022/10/08 01:37:37;;;;;;;;;;;;;;;12.78;100.00;96756.63;4891403;29;19975;-73
2022/10/08 01:40:08;;;;;;;;;;;;;;;12.78;100.00;96748.75;4891355;29;19957;-73
2022/10/08 01:42:35;;;;;;;;;;;;;;;12.78;100.00;96749.53;4886590;29;19959;-73
2022/10/08 01:45:06;;;;;;;;;;;;;;;12.77;100.00;96745.31;4891349;29;19979;-73
2022/10/08 01:47:38;;;;;;;;;;;;;;;12.78;100.00;96738.22;4894800;29;20439;-74
2022/10/08 01:50:18;;;;;;;;;;;;;;;12.78;100.00;96740.84;4883813;29;19988;-73
2022/10/08 01:52:53;;;;;;;;;;;;;;;12.78;100.00;96741.66;4883829;29;20444;-73
2022/10/08 01:55:22;;;;;;;;;;;;;;;12.79;100.00;96747.72;4889732;29;20365;-73
2022/10/08 01:57:49;;;;;;;;;;;;;;;12.79;100.00;96743.25;4891758;29;20421;-73
2022/10/08 02:00:15;;;;;;;;;;;;;;;12.80;100.00;96744.84;4891057;29;19961;-73
2022/10/08 02:02:41;;;;;;;;;;;;;;;12.79;100.00;96740.63;4889531;29;19952;-73
2022/10/08 02:05:07;;;;;;;;;;;;;;;12.80;100.00;96733.53;4886589;29;19979;-73
2022/10/08 02:07:41;;;;;;;;;;;;;;;12.80;100.00;96729.06;4884430;29;19958;-73
2022/10/08 02:10:07;;;;;;;;;;;;;;;12.81;100.00;96729.88;4890798;29;19961;-73
2022/10/08 02:12:33;;;;;;;;;;;;;;;12.83;100.00;96727.00;4895198;29;20017;-73
2022/10/08 02:15:00;;;;;;;;;;;;;;;12.83;100.00;96735.72;4889429;29;19963;-73
2022/10/08 02:17:35;;;;;;;;;;;;;;;12.83;100.00;96734.91;4891103;29;20360;-73
2022/10/08 02:20:10;;;;;;;;;;;;;;;12.83;100.00;96730.47;4884455;29;19944;-73
2022/10/08 02:22:43;;;;;;;;;;;;;;;12.83;100.00;96724.38;4887878;29;19966;-74
2022/10/08 02:25:20;;;;;;;;;;;;;;;12.83;100.00;96729.63;4893336;29;19957;-73
2022/10/08 02:27:56;;;;;;;;;;;;;;;12.82;100.00;96728.84;4887148;29;19953;-73
2022/10/08 02:30:23;;;;;;;;;;;;;;;12.82;100.00;96735.94;4886086;29;19965;-73
2022/10/08 02:32:54;;;;;;;;;;;;;;;12.81;100.00;96735.16;4888169;29;19957;-74
2022/10/08 02:35:24;;;;;;;;;;;;;;;12.81;100.00;96732.53;4892263;29;20326;-74
2022/10/08 02:37:57;;;;;;;;;;;;;;;12.80;100.00;96730.91;4891417;29;19966;-74
2022/10/08 02:40:23;;;;;;;;;;;;;;;12.79;100.00;96732.75;4891447;29;19948;-74
2022/10/08 02:42:51;;;;;;;;;;;;;;;12.78;100.00;96722.44;4886255;29;20395;-73
2022/10/08 02:45:24;;;;;;;;;;;;;;;12.77;100.00;96723.47;4890485;29;19973;-73
2022/10/08 02:47:53;;;;;;;;;;;;;;;12.77;100.00;96732.16;4893994;29;19989;-74
2022/10/08 02:50:22;;;;;;;;;;;;;;;12.76;100.00;96724.47;4887872;29;19983;-73
2022/10/08 02:52:50;;;;;;;;;;;;;;;12.76;100.00;96735.00;4889538;29;20324;-73
2022/10/08 02:55:22;;;;;;;;;;;;;;;12.76;100.00;96737.63;4883995;29;19965;-73
2022/10/08 02:57:52;;;;;;;;;;;;;;;12.75;100.00;96730.78;4889929;29;20435;-73
2022/10/08 03:00:18;;;;;;;;;;;;;;;12.73;100.00;96725.75;4888077;29;20436;-73
2022/10/08 03:03:05;;;;;;;;;;;;;;;12.73;100.00;96732.84;4891094;29;19998;-73
2022/10/08 03:05:31;;;;;;;;;;;;;;;12.72;100.00;96725.94;4894269;29;19957;-73
2022/10/08 03:07:57;;;;;;;;;;;;;;;12.70;100.00;96723.53;4889774;29;20423;-73
2022/10/08 03:10:24;;;;;;;;;;;;;;;12.69;100.00;96732.47;4888073;29;19971;-74
2022/10/08 03:12:58;;;;;;;;;;;;;;;12.68;100.00;96733.50;4888160;29;19965;-73
2022/10/08 03:15:24;;;;;;;;;;;;;;;12.68;100.00;96732.69;4886098;29;20435;-74
2022/10/08 03:17:51;;;;;;;;;;;;;;;12.67;100.00;96733.72;4891281;29;20003;-73
2022/10/08 03:20:17;;;;;;;;;;;;;;;12.67;100.00;96734.53;4889152;29;19970;-73
2022/10/08 03:22:42;;;;;;;;;;;;;;;12.67;100.00;96736.38;4890171;29;19956;-73
2022/10/08 03:25:08;;;;;;;;;;;;;;;12.67;100.00;96739.00;4889517;29;20374;-73
2022/10/08 03:27:34;;;;;;;;;;;;;;;12.65;100.00;96738.41;4888394;29;20013;-73
2022/10/08 03:30:01;;;;;;;;;;;;;;;12.64;100.00;96747.31;4889630;29;19969;-73
2022/10/08 03:32:27;;;;;;;;;;;;;;;12.64;100.00;96750.78;4890623;29;20398;-73
2022/10/08 03:34:53;;;;;;;;;;;;;;;12.63;100.00;96751.00;4889917;29;19956;-73
2022/10/08 03:37:19;;;;;;;;;;;;;;;12.62;100.00;96754.63;4890976;29;19963;-73
2022/10/08 03:39:45;;;;;;;;;;;;;;;12.59;100.00;96745.38;4888201;29;19958;-74
2022/10/08 03:42:11;;;;;;;;;;;;;;;12.57;100.00;96761.38;4890662;29;20013;-73
2022/10/08 03:44:37;;;;;;;;;;;;;;;12.57;100.00;96761.38;4885634;29;19988;-72
2022/10/08 03:47:03;;;;;;;;;;;;;;;12.65;100.00;96762.09;4895212;29;19962;-73
2022/10/08 03:49:29;;;;;;;;;;;;;;;12.67;100.00;96763.47;4892461;29;20137;-74
2022/10/08 03:51:55;;;;;;;;;;;;;;;12.66;100.00;96764.50;4887087;29;20006;-74
2022/10/08 03:54:21;;;;;;;;;;;;;;;12.64;100.00;96758.66;4897391;29;20006;-74
2022/10/08 03:56:47;;;;;;;;;;;;;;;12.61;100.00;96761.72;4891523;29;19957;-74
2022/10/08 03:59:12;;;;;;;;;;;;;;;12.58;100.00;96762.19;4889793;29;20008;-74
2022/10/08 04:01:38;;;;;;;;;;;;;;;12.55;100.00;96759.97;4887952;29;20021;-74
2022/10/08 04:04:04;;;;;;;;;;;;;;;12.52;100.00;96758.59;4891820;29;20035;-74
2022/10/08 04:06:30;;;;;;;;;;;;;;;12.49;100.00;96760.88;4898331;29;20044;-74
2022/10/08 04:08:59;;;;;;;;;;;;;;;12.46;100.00;96775.28;4891704;29;20038;-74
2022/10/08 04:11:26;;;;;;;;;;;;;;;12.46;100.00;96763.97;4873517;29;19979;-74
2022/10/08 04:13:52;;;;;;;;;;;;;;;12.44;100.00;96766.00;4892680;29;19972;-74
2022/10/08 04:16:18;;;;;;;;;;;;;;;12.42;100.00;96760.16;4894260;29;19969;-74
2022/10/08 04:18:44;;;;;;;;;;;;;;;12.39;100.00;96764.84;4891525;29;19958;-73
2022/10/08 04:21:11;;;;;;;;;;;;;;;12.37;100.00;96769.53;4888160;29;19975;-73
2022/10/08 04:23:38;;;;;;;;;;;;;;;12.35;100.00;96768.94;4894151;29;20335;-72
2022/10/08 04:26:04;;;;;;;;;;;;;;;12.33;100.00;96764.94;4894715;29;20410;-73
2022/10/08 04:28:30;;;;;;;;;;;;;;;12.32;100.00;96769.38;4887854;29;19963;-73
2022/10/08 04:30:56;;;;;;;;;;;;;;;12.30;100.00;96766.16;4890964;29;19985;-73
2022/10/08 04:33:22;;;;;;;;;;;;;;;12.30;100.00;96771.41;4889991;29;20422;-73
2022/10/08 04:35:48;;;;;;;;;;;;;;;12.30;100.00;96770.59;4891415;29;20471;-73
2022/10/08 04:38:14;;;;;;;;;;;;;;;12.27;100.00;96777.13;4892057;29;19961;-73
2022/10/08 04:40:40;;;;;;;;;;;;;;;12.25;100.00;96765.22;4890011;29;19960;-73
2022/10/08 04:43:06;;;;;;;;;;;;;;;12.24;100.00;96774.94;4890801;29;19960;-73
2022/10/08 04:45:32;;;;;;;;;;;;;;;12.23;100.00;96773.31;4890393;29;20022;-73
2022/10/08 04:47:58;;;;;;;;;;;;;;;12.21;100.00;96774.56;4892702;29;19965;-73
2022/10/08 04:50:24;;;;;;;;;;;;;;;12.19;100.00;96777.41;4889282;29;19987;-73
2022/10/08 04:52:49;;;;;;;;;;;;;;;12.17;100.00;96777.63;4886498;29;19981;-73
2022/10/08 04:55:15;;;;;;;;;;;;;;;12.17;100.00;96776.81;4894382;29;20044;-72
2022/10/08 04:57:41;;;;;;;;;;;;;;;12.14;100.00;96774.66;4891518;29;20332;-72
2022/10/08 05:00:07;;;;;;;;;;;;;;;12.12;100.00;96781.97;4891470;29;19991;-73
2022/10/08 05:02:33;;;;;;;;;;;;;;;12.09;100.00;96785.81;4887694;29;19964;-72
2022/10/08 05:04:59;;;;;;;;;;;;;;;12.08;100.00;96791.31;4892277;29;19969;-73
2022/10/08 05:07:28;;;;;;;;;;;;;;;12.06;100.00;96788.88;4896728;29;19969;-73
2022/10/08 05:09:53;;;;;;;;;;;;;;;12.04;100.00;96784.88;4890776;29;20334;-73
2022/10/08 05:12:19;;;;;;;;;;;;;;;12.03;100.00;96793.75;4887738;29;19962;-72
2022/10/08 05:14:45;;;;;;;;;;;;;;;12.01;100.00;96790.53;4890090;29;20452;-73
2022/10/08 05:17:11;;;;;;;;;;;;;;;12.00;100.00;96789.75;4889559;29;19966;-72
2022/10/08 05:19:37;;;;;;;;;;;;;;;11.98;100.00;96794.41;4891263;29;19979;-72
2022/10/08 05:22:03;;;;;;;;;;;;;;;11.97;100.00;96792.81;4890645;29;20005;-73
2022/10/08 05:24:29;;;;;;;;;;;;;;;11.97;100.00;96803.34;4894047;29;20436;-73
2022/10/08 05:26:55;;;;;;;;;;;;;;;11.95;100.00;96808.81;4890083;29;20014;-73
2022/10/08 05:29:20;;;;;;;;;;;;;;;11.95;100.00;96800.94;4888885;29;19998;-72
2022/10/08 05:31:46;;;;;;;;;;;;;;;11.94;100.00;96809.03;4889635;29;20029;-73
2022/10/08 05:34:12;;;;;;;;;;;;;;;11.92;100.00;96813.69;4889157;29;20012;-73
2022/10/08 05:36:38;;;;;;;;;;;;;;;11.90;100.00;96813.09;4893656;29;19969;-73
2022/10/08 05:39:05;;;;;;;;;;;;;;;11.89;100.00;96808.88;4888596;29;20350;-72
2022/10/08 05:41:32;;;;;;;;;;;;;;;11.86;100.00;96811.91;4886752;29;19963;-73
2022/10/08 05:44:00;;;;;;;;;;;;;;;11.86;100.00;96811.91;4889606;29;19989;-73
2022/10/08 05:46:27;;;;;;;;;;;;;;;11.85;100.00;96815.56;4889992;29;19969;-73
2022/10/08 05:48:54;;;;;;;;;;;;;;;11.84;100.00;96816.56;4892469;29;19959;-73
2022/10/08 05:51:20;;;;;;;;;;;;;;;11.85;100.00;96824.22;4885150;29;20424;-73
2022/10/08 05:53:47;;;;;;;;;;;;;;;11.85;100.00;96824.22;4887189;29;19972;-73
2022/10/08 05:56:14;;;;;;;;;;;;;;;11.85;100.00;96824.22;4890712;29;19962;-73
2022/10/08 05:58:41;;;;;;;;;;;;;;;11.85;100.00;96823.44;4892976;29;20321;-73
2022/10/08 06:01:09;;;;;;;;;;;;;;;11.86;100.00;96827.66;4892872;29;20431;-73
2022/10/08 06:03:34;;;;;;;;;;;;;;;11.86;100.00;96832.91;4889954;29;19963;-73
2022/10/08 06:06:02;;;;;;;;;;;;;;;11.86;100.00;96832.91;4888581;29;20321;-73
2022/10/08 06:08:28;;;;;;;;;;;;;;;11.87;100.00;96845.06;4886923;29;19962;-73
2022/10/08 06:10:54;;;;;;;;;;;;;;;11.89;100.00;96845.66;4893559;29;19998;-73
2022/10/08 06:13:21;;;;;;;;;;;;;;;11.89;100.00;96846.47;4886726;29;20001;-73
2022/10/08 06:15:56;;;;;;;;;;;;;;;11.89;100.00;96850.94;4885237;29;19961;-74
2022/10/08 06:18:23;;;;;;;;;;;;;;;11.90;100.00;96853.31;4871269;29;20424;-73
2022/10/08 06:20:49;;;;;;;;;;;;;;;11.90;100.00;96850.69;4888830;29;19956;-74
2022/10/08 06:23:16;;;;;;;;;;;;;;;11.93;100.00;96852.91;4893357;29;20573;-73
2022/10/08 06:25:42;;;;;;;;;;;;;;;11.98;100.00;96847.78;4889933;29;19972;-73
2022/10/08 06:28:07;;;;;;;;;;;;;;;12.05;100.00;96852.97;4889384;29;19959;-73
2022/10/08 06:30:33;;;;;;;;;;;;;;;12.11;100.00;96852.13;4888203;29;19973;-73
2022/10/08 06:32:59;;;;;;;;;;;;;;;12.19;100.00;96859.72;4894602;29;19965;-73
2022/10/08 06:35:25;;;;;;;;;;;;;;;12.28;100.00;96857.59;4890856;29;20064;-73
2022/10/08 06:37:51;;;;;;;;;;;;;;;12.40;100.00;96855.06;4886357;29;20005;-73
2022/10/08 06:40:17;;;;;;;;;;;;;;;12.56;100.00;96861.56;4887179;29;19959;-73
2022/10/08 06:42:43;;;;;;;;;;;;;;;12.72;100.00;96868.06;4888819;29;20405;-73
2022/10/08 06:45:09;;;;;;;;;;;;;;;12.85;100.00;96867.91;4890525;29;19978;-73
2022/10/08 06:47:35;;;;;;;;;;;;;;;12.98;100.00;96864.31;4891560;29;19969;-73
2022/10/08 06:50:01;;;;;;;;;;;;;;;13.08;100.00;96867.22;4887091;29;19952;-73
2022/10/08 06:52:27;;;;;;;;;;;;;;;13.19;100.00;96865.66;4887682;29;20454;-73
2022/10/08 06:54:53;;;;;;;;;;;;;;;13.31;100.00;96871.78;4889540;29;20059;-73
2022/10/08 06:57:18;;;;;;;;;;;;;;;13.38;100.00;96867.22;4888043;29;20030;-73
2022/10/08 06:59:44;;;;;;;;;;;;;;;13.43;100.00;96871.00;4891886;29;19960;-73
2022/10/08 07:02:10;;;;;;;;;;;;;;;13.45;100.00;96876.84;4887471;29;20435;-75
2022/10/08 07:04:36;;;;;;;;;;;;;;;13.44;99.25;96883.97;4889149;29;19965;-75
2022/10/08 07:07:02;;;;;;;;;;;;;;;13.46;99.88;96883.72;4889080;29;19959;-75
2022/10/08 07:09:28;;;;;;;;;;;;;;;13.48;99.96;96882.50;4889536;29;20361;-75
2022/10/08 07:11:54;;;;;;;;;;;;;;;13.52;99.88;96890.72;4891193;29;20305;-74
2022/10/08 07:14:20;;;;;;;;;;;;;;;13.57;100.00;96891.66;4893333;29;20000;-75
2022/10/08 07:16:46;;;;;;;;;;;;;;;13.60;100.00;96893.03;4898087;29;20062;-75
2022/10/08 07:19:12;;;;;;;;;;;;;;;13.59;100.00;96897.50;4892249;29;19954;-75
2022/10/08 07:21:39;;;;;;;;;;;;;;;13.62;100.00;96898.09;4887923;29;19966;-75
2022/10/08 07:24:05;;;;;;;;;;;;;;;13.67;100.00;96903.47;4895884;29;19956;-75
2022/10/08 07:26:32;;;;;;;;;;;;;;;13.66;98.68;96905.31;4895622;29;20049;-75
2022/10/08 07:29:03;;;;;;;;;;;;;;;13.61;98.42;96910.47;4891158;29;19963;-75
2022/10/08 07:31:30;;;;;;;;;;;;;;;13.56;94.50;96903.22;4892675;29;19973;-75
2022/10/08 07:33:57;;;;;;;;;;;;;;;13.54;96.55;96915.84;4891419;29;19958;-74
2022/10/08 07:36:23;;;;;;;;;;;;;;;13.58;96.67;96921.44;4894936;29;20652;-75
2022/10/08 07:39:00;;;;;;;;;;;;;;;13.64;96.79;96912.66;4889140;29;19968;-75
2022/10/08 07:41:26;;;;;;;;;;;;;;;13.77;96.27;96914.28;4887446;29;19958;-75
2022/10/08 07:43:53;;;;;;;;;;;;;;;13.99;93.13;96919.81;4892557;29;19996;-75
2022/10/08 07:46:19;;;;;;;;;;;;;;;14.15;92.07;96913.88;4891784;29;19970;-75
2022/10/08 07:48:45;;;;;;;;;;;;;;;14.28;90.87;96922.56;4889588;29;20007;-74
2022/10/08 07:51:12;;;;;;;;;;;;;;;14.39;91.79;96934.97;4887747;29;19971;-75
2022/10/08 07:53:38;;;;;;;;;;;;;;;14.54;89.78;96919.47;4892715;29;19955;-75
2022/10/08 07:56:05;;;;;;;;;;;;;;;14.67;89.18;96915.81;4889886;29;19965;-75
2022/10/08 07:58:31;;;;;;;;;;;;;;;14.71;88.06;96914.31;4894594;29;19982;-75
2022/10/08 08:00:57;;;;;;;;;;;;;;;14.77;89.53;96925.78;4891272;29;19983;-75
2022/10/08 08:03:23;;;;;;;;;;;;;;;14.80;89.68;96931.41;4888487;29;19982;-75
2022/10/08 08:05:49;;;;;;;;;;;;;;;14.82;89.08;96931.16;4891266;29;19955;-73
2022/10/08 08:08:15;;;;;;;;;;;;;;;14.81;85.83;96911.09;4891773;29;19956;-73
2022/10/08 08:10:41;;;;;;;;;;;;;;;14.85;87.19;96922.00;4892595;29;20434;-73
2022/10/08 08:13:07;;;;;;;;;;;;;;;14.87;87.80;96926.00;4892225;29;20002;-73
2022/10/08 08:15:33;;;;;;;;;;;;;;;14.84;84.52;96910.63;4886987;29;20020;-74
2022/10/08 08:17:59;;;;;;;;;;;;;;;14.81;84.64;96913.72;4897460;29;20366;-73
2022/10/08 08:20:25;;;;;;;;;;;;;;;14.74;86.30;96936.81;4895505;29;20021;-73
2022/10/08 08:22:50;;;;;;;;;;;;;;;14.71;83.49;96916.97;4886119;29;19959;-73
2022/10/08 08:25:16;;;;;;;;;;;;;;;14.74;84.18;96918.31;4890772;29;19961;-73
2022/10/08 08:27:42;;;;;;;;;;;;;;;14.72;86.97;96941.50;4891888;29;20055;-73
2022/10/08 08:30:08;;;;;;;;;;;;;;;14.72;85.06;96925.66;4893985;29;19953;-73
2022/10/08 08:32:35;;;;;;;;;;;;;;;14.70;83.03;96923.28;4895068;29;19965;-72
2022/10/08 08:35:01;;;;;;;;;;;;;;;14.75;85.19;96944.50;4890244;29;19962;-73
2022/10/08 08:37:26;;;;;;;;;;;;;;;14.81;81.38;96911.09;4890720;29;19971;-73
2022/10/08 08:39:52;;;;;;;;;;;;;;;14.96;80.88;96910.59;4891591;29;19972;-73
2022/10/08 08:42:29;;;;;;;;;;;;;;;15.13;84.16;96937.88;4893821;29;20985;-73
2022/10/08 08:44:57;;;;;;;;;;;;;;;15.33;81.28;96918.97;4888950;29;19996;-73
2022/10/08 08:47:35;;;;;;;;;;;;;;;15.48;79.51;96896.50;4886875;29;19961;-73
2022/10/08 08:50:20;;;;;;;;;;;;;;;15.61;82.91;96930.56;4883577;29;19968;-73
2022/10/08 08:52:46;;;;;;;;;;;;;;;15.65;77.62;96897.31;4882514;29;19967;-73
2022/10/08 08:55:13;;;;;;;;;;;;;;;15.53;77.39;96897.38;4889617;29;19964;-73
2022/10/08 08:57:39;;;;;;;;;;;;;;;15.41;79.41;96925.69;4891022;29;20036;-73
2022/10/08 09:00:11;;;;;;;;;;;;;;;15.63;83.67;96942.50;4893542;29;19989;-72
2022/10/08 09:02:39;;;;;;;;;;;;;;;15.72;78.32;96905.91;4886184;29;19955;-73
2022/10/08 09:05:10;;;;;;;;;;;;;;;15.75;74.76;96878.22;4892041;29;20406;-73
2022/10/08 09:07:45;;;;;;;;;;;;;;;15.72;75.56;96894.56;4893312;29;20461;-73
2022/10/08 09:10:15;;;;;;;;;;;;;;;15.69;75.16;96889.72;4885730;29;19953;-73
2022/10/08 09:12:45;;;;;;;;;;;;;;;15.72;76.09;96913.06;4888526;29;19963;-73
2022/10/08 09:15:17;;;;;;;;;;;;;;;15.79;76.23;96909.22;4890693;29;20404;-73
2022/10/08 09:17:43;;;;;;;;;;;;;;;15.88;74.17;96883.19;4894739;29;19958;-73
2022/10/08 09:20:13;;;;;;;;;;;;;;;15.94;72.66;96874.28;4883083;29;19965;-73
2022/10/08 09:22:39;;;;;;;;;;;;;;;15.99;72.10;96874.34;4886657;29;19968;-74
2022/10/08 09:25:09;;;;;;;;;;;;;;;16.03;72.50;96880.75;4889832;29;19959;-73
2022/10/08 09:27:46;;;;;;;;;;;;;;;16.15;76.79;96919.56;4878614;29;20338;-73
2022/10/08 09:30:32;;;;;;;;;;;;;;;16.22;72.54;96889.22;4886908;29;19957;-74
2022/10/08 09:33:15;;;;;;;;;;;;;;;16.30;72.51;96887.25;4886418;29;19963;-73
2022/10/08 09:35:43;;;;;;;;;;;;;;;16.33;70.81;96879.59;4884386;29;20421;-73
2022/10/08 09:38:22;;;;;;;;;;;;;;;16.36;70.54;96868.53;4890420;29;19978;-73
2022/10/08 09:41:03;;;;;;;;;;;;;;;16.32;68.17;96858.69;4886817;29;19951;-73
2022/10/08 09:43:29;;;;;;;;;;;;;;;16.19;71.08;96880.97;4889107;29;19957;-73
2022/10/08 09:45:56;;;;;;;;;;;;;;;16.10;70.94;96895.66;4888088;29;19984;-73
2022/10/08 09:48:24;;;;;;;;;;;;;;;16.05;70.18;96885.81;4893849;29;19990;-74
2022/10/08 09:51:12;;;;;;;;;;;;;;;15.97;71.70;96908.19;4891250;29;19969;-73
2022/10/08 09:53:47;;;;;;;;;;;;;;;15.94;74.71;96937.78;4880237;29;19966;-73
2022/10/08 09:56:13;;;;;;;;;;;;;;;15.91;72.00;96914.44;4870110;29;19956;-73
2022/10/08 09:58:51;;;;;;;;;;;;;;;15.89;72.90;96915.72;4889904;29;19953;-73
2022/10/08 10:01:18;;;;;;;;;;;;;;;15.88;70.40;96887.69;4885500;29;19956;-74
2022/10/08 10:03:54;;;;;;;;;;;;;;;15.90;70.40;96886.38;4895772;29;19959;-74
2022/10/08 10:06:33;;;;;;;;;;;;;;;15.99;70.04;96886.78;4888223;29;19976;-74
2022/10/08 10:09:01;;;;;;;;;;;;;;;16.03;69.80;96893.97;4887393;29;19963;-73
2022/10/08 10:11:27;;;;;;;;;;;;;;;16.02;68.01;96879.16;4887349;29;20353;-74
2022/10/08 10:13:53;;;;;;;;;;;;;;;16.03;69.91;96904.56;4889051;29;19963;-73
2022/10/08 10:16:23;;;;;;;;;;;;;;;16.10;67.60;96877.94;4889284;29;19981;-73
2022/10/08 10:18:57;;;;;;;;;;;;;;;16.21;70.62;96903.53;4890189;29;19957;-73
2022/10/08 10:21:42;;;;;;;;;;;;;;;16.36;74.00;96932.06;4890367;29;19962;-74
2022/10/08 10:24:23;;;;;;;;;;;;;;;16.51;69.26;96889.13;4888996;29;19956;-73
2022/10/08 10:26:50;;;;;;;;;;;;;;;16.66;69.67;96896.44;4886733;29;19958;-74
2022/10/08 10:29:19;;;;;;;;;;;;;;;16.76;71.07;96898.44;4887874;29;19962;-74
2022/10/08 10:31:57;;;;;;;;;;;;;;;16.79;67.13;96864.28;4895447;29;19964;-74
2022/10/08 10:34:24;;;;;;;;;;;;;;;16.72;70.25;96902.63;4886492;29;19962;-73
2022/10/08 10:36:51;;;;;;;;;;;;;;;16.65;68.35;96876.28;4890587;29;19955;-74
2022/10/08 10:39:20;;;;;;;;;;;;;;;16.52;68.58;96871.38;4889457;29;19958;-73
2022/10/08 10:42:07;;;;;;;;;;;;;;;16.32;66.88;96882.50;4891145;29;19975;-73
2022/10/08 10:44:42;;;;;;;;;;;;;;;16.14;68.38;96872.97;4876117;29;20011;-74
2022/10/08 10:47:08;;;;;;;;;;;;;;;15.92;68.86;96889.59;4885746;29;19960;-73
2022/10/08 10:49:37;;;;;;;;;;;;;;;15.75;66.42;96884.31;4894717;29;19969;-73
2022/10/08 10:52:32;;;;;;;;;;;;;;;15.74;68.00;96881.88;4898162;29;20430;-74
2022/10/08 10:55:27;;;;;;;;;;;;;;;15.93;68.39;96898.31;4867908;29;19960;-74
2022/10/08 10:58:03;;;;;;;;;;;;;;;16.08;68.20;96889.81;4838033;29;19963;-73
2022/10/08 11:00:29;;;;;;;;;;;;;;;16.20;68.04;96890.53;4893215;29;19963;-73
2022/10/08 11:03:08;;;;;;;;;;;;;;;16.22;63.32;96833.66;4895510;29;20420;-73
2022/10/08 11:05:35;;;;;;;;;;;;;;;16.21;69.45;96913.28;4892621;29;19961;-73
2022/10/08 11:08:29;;;;;;;;;;;;;;;16.26;62.72;96828.69;4890022;29;19968;-73
2022/10/08 11:11:05;;;;;;;;;;;;;;;16.43;65.84;96874.44;4893372;29;19949;-74
2022/10/08 11:13:31;;;;;;;;;;;;;;;16.67;67.29;96878.72;4895982;29;19985;-74
2022/10/08 11:16:14;;;;;;;;;;;;;;;16.82;62.96;96828.63;4897864;29;19970;-74
2022/10/08 11:18:49;;;;;;;;;;;;;;;16.95;66.74;96875.91;4893145;29;19958;-74
2022/10/08 11:21:24;;;;;;;;;;;;;;;17.14;59.79;96804.03;4876153;29;19960;-73
2022/10/08 11:23:59;;;;;;;;;;;;;;;17.32;67.03;96872.56;4890333;29;19964;-73
2022/10/08 11:26:48;;;;;;;;;;;;;;;17.40;63.89;96855.41;4897348;29;19979;-73
2022/10/08 11:29:14;;;;;;;;;;;;;;;17.36;63.51;96856.97;4881640;29;20326;-73
2022/10/08 11:31:47;;;;;;;;;;;;;;;17.23;57.67;96827.16;4893221;29;19966;-73
2022/10/08 11:34:21;;;;;;;;;;;;;;;17.09;62.61;96881.59;4894027;29;19950;-73
2022/10/08 11:37:01;;;;;;;;;;;;;;;16.90;58.47;96867.09;4895576;29;19971;-73
2022/10/08 11:39:39;;;;;;;;;;;;;;;16.82;62.15;96910.72;4893682;29;19964;-73
2022/10/08 11:42:11;;;;;;;;;;;;;;;17.01;66.48;96943.81;4896854;29;19956;-72
2022/10/08 11:44:37;;;;;;;;;;;;;;;17.27;58.99;96885.00;4898075;29;20437;-72
2022/10/08 11:47:22;;;;;;;;;;;;;;;17.44;59.45;96891.78;4893142;29;19967;-73
2022/10/08 11:49:53;;;;;;;;;;;;;;;17.60;61.00;96905.22;4890585;29;19971;-74
2022/10/08 11:52:18;;;;;;;;;;;;;;;17.77;62.57;96907.75;4890380;29;20424;-74
2022/10/08 11:54:49;;;;;;;;;;;;;;;17.92;63.36;96915.84;4892561;29;20134;-74
2022/10/08 11:57:23;;;;;;;;;;;;;;;18.04;60.69;96905.06;4900315;29;19999;-72
2022/10/08 12:00:05;;;;;;;;;;;;;;;17.99;59.84;96905.81;4892654;29;19949;-72
2022/10/08 12:02:32;;;;;;;;;;;;;;;17.81;60.36;96916.78;4892377;29;19959;-72
2022/10/08 12:05:14;;;;;;;;;;;;;;;17.76;58.48;96908.78;4888832;29;20434;-73
2022/10/08 12:07:46;;;;;;;;;;;;;;;17.78;56.62;96904.03;4893694;29;19963;-73
2022/10/08 12:10:18;;;;;;;;;;;;;;;17.80;60.54;96921.28;4893269;29;19958;-72
2022/10/08 12:12:47;;;;;;;;;;;;;;;17.92;59.57;96917.72;4888524;29;19967;-72
2022/10/08 12:15:22;;;;;;;;;;;;;;;17.95;53.40;96896.75;4885549;29;19957;-72
2022/10/08 12:17:53;;;;;;;;;;;;;;;18.03;61.82;96944.06;4890238;29;20330;-72
2022/10/08 12:20:26;;;;;;;;;;;;;;;18.04;57.35;96919.13;4891291;29;20342;-72
2022/10/08 12:22:59;;;;;;;;;;;;;;;18.11;57.15;96910.94;4896215;29;19949;-72
2022/10/08 12:25:32;;;;;;;;;;;;;;;18.06;54.13;96905.63;4890869;29;20428;-74
2022/10/08 12:28:17;;;;;;;;;;;;;;;18.07;56.36;96920.47;4888466;29;19952;-75
2022/10/08 12:30:47;;;;;;;;;;;;;;;18.06;50.34;96902.97;4889686;29;19986;-73
2022/10/08 12:33:13;;;;;;;;;;;;;;;18.04;54.66;96916.47;4896708;29;19984;-74
2022/10/08 12:35:46;;;;;;;;;;;;;;;18.07;53.96;96927.63;4887891;29;19958;-73
2022/10/08 12:38:15;;;;;;;;;;;;;;;18.04;51.31;96911.16;4887540;29;19961;-73
2022/10/08 12:40:56;;;;;;;;;;;;;;;18.05;50.98;96922.56;4891749;29;19972;-74
2022/10/08 12:43:25;;;;;;;;;;;;;;;17.88;53.40;96924.56;4891337;29;19957;-74
2022/10/08 12:45:51;;;;;;;;;;;;;;;17.77;53.32;96928.97;4892631;29;19989;-73
2022/10/08 12:48:30;;;;;;;;;;;;;;;17.71;51.80;96920.16;4885014;29;19976;-74
2022/10/08 12:51:02;;;;;;;;;;;;;;;17.78;56.83;96943.81;4891976;29;19967;-74
2022/10/08 12:53:28;;;;;;;;;;;;;;;17.93;53.96;96932.56;4892014;29;19960;-74
2022/10/08 12:55:55;;;;;;;;;;;;;;;18.09;54.32;96930.84;4889400;29;20054;-74